createdAt,value
2022-12-28T00:01:22.371Z,1.97
2022-12-28T00:03:49.612Z,2.07
2022-12-28T00:06:17.020Z,2.60
2022-12-28T00:08:44.120Z,2.00
2022-12-28T00:11:28.037Z,2.83
2022-12-28T00:14:01.942Z,2.37
2022-12-28T00:16:40.123Z,2.40
2022-12-28T00:19:15.793Z,2.77
2022-12-28T00:21:43.934Z,2.50
2022-12-28T00:24:20.513Z,2.87
2022-12-28T00:26:47.525Z,2.23
2022-12-28T00:29:14.716Z,2.77
2022-12-28T00:31:41.941Z,2.03
2022-12-28T00:34:08.978Z,2.37
2022-12-28T00:37:10.915Z,2.50
2022-12-28T00:39:22.794Z,2.50
2022-12-28T00:41:49.739Z,3.57
2022-12-28T00:44:16.679Z,2.90
2022-12-28T00:46:43.707Z,3.17
2022-12-28T00:49:10.564Z,2.37
2022-12-28T00:51:37.510Z,2.50
2022-12-28T00:54:04.587Z,2.63
2022-12-28T00:56:31.532Z,2.50
2022-12-28T00:58:59.399Z,2.80
2022-12-28T01:01:27.705Z,2.93
2022-12-28T01:03:58.625Z,3.20
2022-12-28T01:06:26.358Z,3.07
2022-12-28T01:08:53.656Z,2.60
2022-12-28T01:11:23.109Z,2.50
2022-12-28T01:13:51.075Z,2.03
2022-12-28T01:16:30.412Z,3.17
2022-12-28T01:18:59.838Z,2.50
2022-12-28T01:21:29.709Z,2.37
2022-12-28T01:23:58.636Z,2.67
2022-12-28T01:26:26.262Z,2.60
2022-12-28T01:28:53.210Z,2.07
2022-12-28T01:31:21.363Z,2.77
2022-12-28T01:33:48.862Z,2.27
2022-12-28T01:36:21.612Z,2.70
2022-12-28T01:38:49.373Z,2.63
2022-12-28T01:41:18.485Z,2.33
2022-12-28T01:44:08.050Z,2.57
2022-12-28T01:46:46.375Z,2.50
2022-12-28T01:49:18.623Z,2.17
2022-12-28T01:52:11.008Z,2.67
2022-12-28T01:54:48.234Z,2.87
2022-12-28T01:57:15.839Z,2.90
2022-12-28T01:59:48.236Z,2.93
2022-12-28T02:02:15.524Z,2.30
2022-12-28T02:04:42.577Z,2.37
2022-12-28T02:07:09.663Z,2.77
2022-12-28T02:09:40.584Z,2.50
2022-12-28T02:12:09.011Z,2.00
2022-12-28T02:14:36.094Z,2.80
2022-12-28T02:17:03.077Z,2.73
2022-12-28T02:19:39.473Z,2.87
2022-12-28T02:22:27.781Z,2.00
2022-12-28T02:25:12.200Z,2.63
2022-12-28T02:27:50.368Z,2.50
2022-12-28T02:30:17.933Z,2.23
2022-12-28T02:33:24.904Z,2.17
2022-12-28T02:35:58.583Z,2.60
2022-12-28T02:38:37.720Z,2.10
2022-12-28T02:41:10.129Z,2.93
2022-12-28T02:43:37.290Z,2.20
2022-12-28T02:46:56.150Z,2.97
2022-12-28T02:49:44.465Z,2.63
2022-12-28T02:52:32.245Z,2.63
2022-12-28T02:55:29.726Z,2.70
2022-12-28T02:58:37.864Z,2.23
2022-12-28T03:01:13.845Z,2.63
2022-12-28T03:04:15.935Z,2.57
2022-12-28T03:07:39.182Z,2.10
2022-12-28T03:10:26.484Z,2.33
2022-12-28T03:13:01.998Z,2.03
2022-12-28T03:15:38.462Z,2.10
2022-12-28T03:18:30.985Z,2.37
2022-12-28T03:21:21.045Z,2.73
2022-12-28T03:24:07.450Z,2.13
2022-12-28T03:26:54.998Z,2.80
2022-12-28T03:29:41.752Z,2.37
2022-12-28T03:32:09.420Z,2.20
2022-12-28T03:34:36.845Z,2.30
2022-12-28T03:37:31.923Z,2.03
2022-12-28T03:40:02.363Z,2.70
2022-12-28T03:42:49.562Z,2.23
2022-12-28T03:45:46.645Z,3.17
2022-12-28T03:48:15.803Z,2.63
2022-12-28T03:50:44.764Z,2.77
2022-12-28T03:53:11.770Z,1.83
2022-12-28T03:55:40.058Z,2.03
2022-12-28T03:58:07.393Z,2.53
2022-12-28T04:00:34.764Z,2.23
2022-12-28T04:03:01.700Z,2.33
2022-12-28T04:05:28.626Z,2.70
2022-12-28T04:07:55.607Z,2.80
2022-12-28T04:10:22.457Z,2.33
2022-12-28T04:12:49.371Z,1.93
2022-12-28T04:15:16.315Z,2.70
2022-12-28T04:17:43.269Z,1.97
2022-12-28T04:20:10.281Z,2.50
2022-12-28T04:22:37.186Z,2.23
2022-12-28T04:25:06.438Z,2.00
2022-12-28T04:27:33.349Z,2.60
2022-12-28T04:30:00.252Z,1.97
2022-12-28T04:32:27.222Z,2.10
2022-12-28T04:34:54.187Z,2.00
2022-12-28T04:37:21.243Z,2.40
2022-12-28T04:39:55.273Z,2.07
2022-12-28T04:42:25.662Z,2.17
2022-12-28T04:44:52.561Z,1.93
2022-12-28T04:47:19.471Z,2.27
2022-12-28T04:49:46.543Z,2.43
2022-12-28T04:52:13.923Z,2.30
2022-12-28T04:54:40.831Z,2.23
2022-12-28T04:57:07.811Z,2.00
2022-12-28T04:59:34.785Z,2.60
2022-12-28T05:02:01.769Z,2.27
2022-12-28T05:04:28.862Z,2.30
2022-12-28T05:06:55.817Z,2.70
2022-12-28T05:09:22.756Z,3.00
2022-12-28T05:11:50.035Z,2.77
2022-12-28T05:14:16.949Z,2.10
2022-12-28T05:16:43.839Z,2.90
2022-12-28T05:19:10.844Z,2.13
2022-12-28T05:21:37.768Z,2.70
2022-12-28T05:24:04.840Z,2.20
2022-12-28T05:26:31.805Z,2.40
2022-12-28T05:28:59.199Z,2.53
2022-12-28T05:31:26.402Z,3.37
2022-12-28T05:33:55.076Z,3.03
2022-12-28T05:36:24.089Z,2.20
2022-12-28T05:38:51.562Z,2.57
2022-12-28T05:41:24.552Z,2.30
2022-12-28T05:43:52.334Z,2.77
2022-12-28T05:46:22.080Z,2.00
2022-12-28T05:48:49.073Z,2.53
2022-12-28T05:51:18.532Z,2.00
2022-12-28T05:53:45.696Z,2.70
2022-12-28T05:56:17.714Z,2.90
2022-12-28T05:58:45.961Z,2.40
2022-12-28T06:01:18.487Z,3.17
2022-12-28T06:03:47.004Z,2.60
2022-12-28T06:06:18.316Z,2.30
2022-12-28T06:08:46.901Z,2.00
2022-12-28T06:11:16.617Z,2.33
2022-12-28T06:13:43.567Z,2.80
2022-12-28T06:16:19.492Z,3.00
2022-12-28T06:18:46.766Z,2.23
2022-12-28T06:21:16.306Z,3.77
2022-12-28T06:23:44.304Z,2.47
2022-12-28T06:26:13.862Z,2.67
2022-12-28T06:28:41.721Z,2.60
2022-12-28T06:31:17.338Z,2.10
2022-12-28T06:33:44.577Z,2.27
2022-12-28T06:36:20.242Z,3.23
2022-12-28T06:38:48.707Z,2.37
2022-12-28T06:41:17.217Z,2.43
2022-12-28T06:43:44.979Z,3.07
2022-12-28T06:46:12.669Z,3.23
2022-12-28T06:48:40.992Z,3.10
2022-12-28T06:51:12.865Z,3.03
2022-12-28T06:53:39.845Z,2.63
2022-12-28T06:56:12.278Z,2.27
2022-12-28T06:58:39.449Z,3.00
2022-12-28T07:01:25.816Z,3.00
2022-12-28T07:03:54.683Z,2.83
2022-12-28T07:06:24.558Z,2.97
2022-12-28T07:08:57.216Z,2.90
2022-12-28T07:11:24.106Z,3.03
2022-12-28T07:13:51.082Z,2.67
2022-12-28T07:16:20.659Z,2.40
2022-12-28T07:18:47.735Z,3.13
2022-12-28T07:21:18.953Z,3.37
2022-12-28T07:23:45.917Z,2.70
2022-12-28T07:26:22.506Z,2.73
2022-12-28T07:28:51.421Z,2.77
2022-12-28T07:31:23.690Z,3.07
2022-12-28T07:33:52.017Z,2.50
2022-12-28T07:36:20.925Z,2.73
2022-12-28T07:38:48.320Z,3.13
2022-12-28T07:41:17.694Z,3.23
2022-12-28T07:43:44.747Z,2.33
2022-12-28T07:46:13.485Z,2.93
2022-12-28T07:48:41.228Z,2.70
2022-12-28T07:51:10.932Z,2.60
2022-12-28T07:53:38.776Z,2.50
2022-12-28T07:56:06.449Z,2.73
2022-12-28T07:58:34.087Z,2.57
2022-12-28T08:01:15.311Z,4.97
2022-12-28T08:03:45.277Z,2.93
2022-12-28T08:06:13.415Z,3.10
2022-12-28T08:08:43.384Z,3.30
2022-12-28T08:11:12.904Z,3.90
2022-12-28T08:13:41.719Z,2.73
2022-12-28T08:16:10.621Z,3.20
2022-12-28T08:18:38.101Z,3.80
2022-12-28T08:21:07.770Z,3.20
2022-12-28T08:23:34.711Z,3.57
2022-12-28T08:26:16.050Z,4.27
2022-12-28T08:28:44.244Z,3.10
2022-12-28T08:31:14.187Z,3.10
2022-12-28T08:33:41.545Z,3.43
2022-12-28T08:36:09.495Z,3.87
2022-12-28T08:38:37.764Z,3.27
2022-12-28T08:41:07.510Z,3.00
2022-12-28T08:43:35.105Z,2.97
2022-12-28T08:46:06.652Z,3.40
2022-12-28T08:48:34.279Z,4.20
2022-12-28T08:51:06.494Z,2.87
2022-12-28T08:53:34.018Z,3.30
2022-12-28T08:56:11.422Z,3.17
2022-12-28T08:58:39.692Z,3.10
2022-12-28T09:01:13.245Z,4.13
2022-12-28T09:03:42.326Z,3.97
2022-12-28T09:06:11.845Z,4.20
2022-12-28T09:08:39.149Z,3.47
2022-12-28T09:11:08.869Z,4.23
2022-12-28T09:13:36.294Z,3.80
2022-12-28T09:16:06.329Z,3.67
2022-12-28T09:18:33.498Z,3.47
2022-12-28T09:21:13.772Z,4.07
2022-12-28T09:23:41.344Z,3.07
2022-12-28T09:26:13.494Z,4.07
2022-12-28T09:28:45.017Z,4.00
2022-12-28T09:31:12.110Z,4.13
2022-12-28T09:34:34.318Z,3.83
2022-12-28T09:36:45.128Z,3.63
2022-12-28T09:39:17.886Z,3.07
2022-12-28T09:41:53.125Z,2.93
2022-12-28T09:44:57.665Z,3.33
2022-12-28T09:47:36.059Z,3.43
2022-12-28T09:50:09.442Z,3.00
2022-12-28T09:53:15.523Z,4.67
2022-12-28T09:55:55.175Z,2.87
2022-12-28T09:58:22.495Z,3.47
2022-12-28T10:00:51.797Z,3.17
2022-12-28T10:03:38.296Z,3.53
2022-12-28T10:06:13.615Z,3.90
2022-12-28T10:08:47.092Z,2.70
2022-12-28T10:11:18.590Z,3.13
2022-12-28T10:13:54.608Z,2.80
2022-12-28T10:16:23.524Z,3.57
2022-12-28T10:18:50.700Z,3.43
2022-12-28T10:21:26.811Z,3.60
2022-12-28T10:26:47.368Z,2.97
2022-12-28T10:29:19.700Z,2.97
2022-12-28T10:31:58.876Z,3.30
2022-12-28T10:34:26.232Z,2.97
2022-12-28T10:36:54.933Z,3.70
2022-12-28T10:39:28.944Z,3.03
2022-12-28T10:41:58.438Z,4.47
2022-12-28T10:44:40.074Z,3.47
2022-12-28T10:47:28.359Z,2.60
2022-12-28T10:50:35.454Z,2.87
2022-12-28T10:52:42.440Z,2.87
2022-12-28T10:55:34.515Z,2.40
2022-12-28T10:58:33.794Z,2.83
2022-12-28T11:01:05.060Z,3.00
2022-12-28T11:03:37.981Z,2.57
2022-12-28T11:06:27.373Z,1.90
2022-12-28T11:09:14.339Z,3.17
2022-12-28T11:11:42.535Z,2.30
2022-12-28T11:14:26.490Z,2.67
2022-12-28T11:16:53.657Z,2.37
2022-12-28T11:19:21.340Z,2.87
2022-12-28T11:21:49.543Z,3.40
2022-12-28T11:24:17.823Z,2.07
2022-12-28T11:26:47.210Z,3.50
2022-12-28T11:29:15.976Z,2.20
2022-12-28T11:32:07.303Z,2.83
2022-12-28T11:34:34.533Z,2.60
2022-12-28T11:37:01.462Z,2.77
2022-12-28T11:39:28.267Z,2.50
2022-12-28T11:44:45.997Z,3.97
2022-12-28T11:47:15.750Z,2.60
2022-12-28T11:49:44.248Z,3.13
2022-12-28T11:52:17.459Z,2.80
2022-12-28T11:55:23.613Z,3.27
2022-12-28T11:57:50.835Z,4.30
2022-12-28T12:00:22.178Z,4.23
2022-12-28T12:02:57.061Z,3.63
2022-12-28T12:05:36.716Z,3.40
2022-12-28T12:08:23.516Z,3.33
2022-12-28T12:11:19.352Z,3.17
2022-12-28T12:13:49.159Z,3.87
2022-12-28T12:16:27.339Z,3.43
2022-12-28T12:18:57.156Z,2.57
2022-12-28T12:21:34.869Z,3.30
2022-12-28T12:24:18.761Z,2.90
2022-12-28T12:26:54.607Z,2.40
2022-12-28T12:29:24.881Z,2.87
2022-12-28T12:32:08.488Z,2.83
2022-12-28T12:34:51.781Z,2.57
2022-12-28T12:37:21.903Z,3.60
2022-12-28T12:40:09.006Z,4.47
2022-12-28T12:43:26.385Z,3.47
2022-12-28T12:46:08.229Z,3.80
2022-12-28T12:48:53.414Z,3.03
2022-12-28T12:51:37.222Z,3.83
2022-12-28T12:54:26.813Z,3.00
2022-12-28T12:56:58.492Z,3.23
2022-12-28T13:00:00.783Z,3.17
2022-12-28T13:02:46.061Z,3.37
2022-12-28T13:05:18.137Z,2.47
2022-12-28T13:07:45.206Z,3.50
2022-12-28T13:10:25.295Z,3.00
2022-12-28T13:12:57.491Z,3.27
2022-12-28T13:15:24.494Z,2.60
2022-12-28T13:18:43.120Z,3.10
2022-12-28T13:21:00.080Z,2.83
2022-12-28T13:23:29.661Z,2.63
2022-12-28T13:26:01.684Z,2.77
2022-12-28T13:28:30.025Z,2.60
2022-12-28T13:31:18.691Z,3.60
2022-12-28T13:33:59.600Z,3.23
2022-12-28T13:36:27.026Z,3.43
2022-12-28T13:39:04.937Z,3.63
2022-12-28T13:41:33.183Z,3.17
2022-12-28T13:44:29.426Z,2.80
2022-12-28T13:47:16.487Z,3.10
2022-12-28T13:49:53.565Z,3.77
2022-12-28T13:52:23.920Z,3.03
2022-12-28T13:54:54.804Z,3.60
2022-12-28T14:00:10.732Z,2.73
2022-12-28T14:02:40.702Z,2.77
2022-12-28T14:05:08.473Z,3.17
2022-12-28T14:07:36.299Z,3.10
2022-12-28T14:10:04.014Z,2.70
2022-12-28T14:12:31.437Z,2.80
2022-12-28T14:14:58.901Z,2.53
2022-12-28T14:17:26.529Z,2.50
2022-12-28T14:19:56.132Z,2.17
2022-12-28T14:22:34.640Z,2.43
2022-12-28T14:25:04.255Z,2.17
2022-12-28T14:27:32.203Z,2.30
2022-12-28T14:30:01.111Z,2.57
2022-12-28T14:32:28.044Z,5.13
2022-12-28T14:34:59.501Z,2.30
2022-12-28T14:37:30.880Z,2.27
2022-12-28T14:40:04.113Z,2.60
2022-12-28T14:42:31.206Z,2.93
2022-12-28T14:44:59.215Z,3.23
2022-12-28T14:47:46.553Z,3.50
2022-12-28T14:50:33.758Z,2.97
2022-12-28T14:53:16.227Z,2.80
2022-12-28T14:55:53.130Z,3.43
2022-12-28T14:58:27.088Z,3.17
2022-12-28T15:01:00.929Z,4.23
2022-12-28T15:03:29.334Z,3.90
2022-12-28T15:06:00.365Z,3.20
2022-12-28T15:08:29.954Z,3.80
2022-12-28T15:10:58.919Z,4.17
2022-12-28T15:13:26.781Z,4.27
2022-12-28T15:16:06.947Z,3.57
2022-12-28T15:18:34.284Z,3.60
2022-12-28T15:21:05.850Z,4.17
2022-12-28T15:23:33.632Z,3.97
2022-12-28T15:26:06.896Z,2.97
2022-12-28T15:28:33.786Z,3.77
2022-12-28T15:31:00.720Z,3.33
2022-12-28T15:33:27.656Z,4.60
2022-12-28T15:36:02.708Z,4.47
2022-12-28T15:38:29.685Z,4.07
2022-12-28T15:40:56.556Z,4.20
2022-12-28T15:43:23.456Z,3.70
2022-12-28T15:45:58.014Z,3.50
2022-12-28T15:48:25.492Z,3.93
2022-12-28T15:50:52.493Z,4.37
2022-12-28T15:53:19.451Z,4.30
2022-12-28T15:55:59.678Z,3.70
2022-12-28T15:58:27.118Z,3.87
2022-12-28T16:00:54.308Z,4.03
2022-12-28T16:03:21.409Z,4.57
2022-12-28T16:05:48.386Z,3.90
2022-12-28T16:08:15.272Z,6.83
2022-12-28T16:10:42.180Z,5.63
2022-12-28T16:13:09.097Z,3.87
2022-12-28T16:15:36.011Z,4.50
2022-12-28T16:18:02.923Z,4.17
2022-12-28T16:20:30.142Z,4.30
2022-12-28T16:22:57.119Z,4.30
2022-12-28T16:25:23.997Z,5.50
2022-12-28T16:27:50.948Z,4.90
2022-12-28T16:30:17.927Z,4.23
2022-12-28T16:32:47.797Z,5.20
2022-12-28T16:35:15.796Z,4.50
2022-12-28T16:37:43.402Z,5.20
2022-12-28T16:40:11.070Z,4.70
2022-12-28T16:42:38.034Z,4.77
2022-12-28T16:45:05.376Z,5.40
2022-12-28T16:47:32.256Z,5.50
2022-12-28T16:49:59.170Z,5.17
2022-12-28T16:52:26.086Z,4.87
2022-12-28T16:54:52.975Z,5.27
2022-12-28T16:57:19.871Z,5.47
2022-12-28T16:59:46.789Z,4.77
2022-12-28T17:02:13.981Z,5.17
2022-12-28T17:04:41.105Z,5.37
2022-12-28T17:07:08.018Z,4.70
2022-12-28T17:09:35.821Z,5.50
2022-12-28T17:12:02.738Z,3.57
2022-12-28T17:14:37.478Z,3.93
2022-12-28T17:17:06.510Z,3.27
2022-12-28T17:19:33.548Z,4.00
2022-12-28T17:22:00.459Z,3.37
2022-12-28T17:24:27.482Z,3.33
2022-12-28T17:26:54.372Z,2.97
2022-12-28T17:29:21.275Z,4.07
2022-12-28T17:31:48.923Z,4.10
2022-12-28T17:34:15.892Z,4.70
2022-12-28T17:36:42.779Z,3.87
2022-12-28T17:39:09.764Z,5.00
2022-12-28T17:41:36.646Z,4.20
2022-12-28T17:44:04.980Z,4.57
2022-12-28T17:46:33.372Z,4.57
2022-12-28T17:49:00.761Z,3.77
2022-12-28T17:51:29.336Z,4.13
2022-12-28T17:53:57.507Z,3.53
2022-12-28T17:56:24.675Z,4.50
2022-12-28T17:58:58.197Z,4.77
2022-12-28T18:01:26.795Z,4.67
2022-12-28T18:03:54.350Z,4.83
2022-12-28T18:06:21.592Z,4.03
2022-12-28T18:08:48.501Z,3.93
2022-12-28T18:11:15.514Z,4.73
2022-12-28T18:13:43.763Z,4.50
2022-12-28T18:16:15.707Z,4.30
2022-12-28T18:18:43.381Z,4.40
2022-12-28T18:21:21.742Z,4.47
2022-12-28T18:23:50.738Z,4.00
2022-12-28T18:26:20.525Z,3.80
2022-12-28T18:28:47.551Z,4.40
2022-12-28T18:31:14.964Z,4.67
2022-12-28T18:33:41.877Z,4.33
2022-12-28T18:36:13.800Z,5.23
2022-12-28T18:38:43.698Z,3.97
2022-12-28T18:41:12.462Z,5.30
2022-12-28T18:43:39.586Z,4.23
2022-12-28T18:46:07.763Z,4.27
2022-12-28T18:48:36.984Z,3.57
2022-12-28T18:51:06.419Z,4.27
2022-12-28T18:53:33.817Z,5.00
2022-12-28T18:56:02.943Z,4.83
2022-12-28T18:58:32.624Z,4.90
2022-12-28T19:01:08.630Z,4.33
2022-12-28T19:03:38.596Z,3.97
2022-12-28T19:06:07.692Z,3.97
2022-12-28T19:08:37.104Z,3.27
2022-12-28T19:11:04.531Z,3.50
2022-12-28T19:13:36.261Z,2.87
2022-12-28T19:16:04.614Z,3.00
2022-12-28T19:18:31.662Z,3.70
2022-12-28T19:20:59.768Z,4.07
2022-12-28T19:23:26.683Z,3.80
2022-12-28T19:25:59.340Z,3.70
2022-12-28T19:28:26.391Z,3.47
2022-12-28T19:30:53.322Z,3.37
2022-12-28T19:33:20.274Z,3.37
2022-12-28T19:35:47.145Z,3.53
2022-12-28T19:38:14.066Z,3.27
2022-12-28T19:40:40.953Z,2.93
2022-12-28T19:43:07.824Z,2.20
2022-12-28T19:45:34.783Z,2.30
2022-12-28T19:48:01.639Z,2.37
2022-12-28T19:50:29.235Z,2.30
2022-12-28T19:52:56.228Z,2.10
2022-12-28T19:55:23.326Z,2.20
2022-12-28T19:57:50.370Z,2.00
2022-12-28T20:00:17.349Z,2.80
2022-12-28T20:02:44.418Z,3.80
2022-12-28T20:05:11.409Z,2.10
2022-12-28T20:07:38.850Z,2.37
2022-12-28T20:10:08.991Z,2.77
2022-12-28T20:12:35.907Z,2.13
2022-12-28T20:15:02.777Z,2.97
2022-12-28T20:17:29.983Z,2.80
2022-12-28T20:19:56.980Z,2.50
2022-12-28T20:22:23.926Z,3.47
2022-12-28T20:24:50.828Z,3.20
2022-12-28T20:27:17.940Z,3.87
2022-12-28T20:29:45.306Z,2.70
2022-12-28T20:32:12.200Z,3.10
2022-12-28T20:34:39.560Z,3.07
2022-12-28T20:37:06.434Z,3.40
2022-12-28T20:39:33.377Z,4.07
2022-12-28T20:42:18.883Z,3.70
2022-12-28T20:44:45.830Z,3.13
2022-12-28T20:47:12.801Z,2.90
2022-12-28T20:49:39.848Z,4.00
2022-12-28T20:52:06.708Z,3.17
2022-12-28T20:54:33.913Z,3.20
2022-12-28T20:57:00.949Z,4.37
2022-12-28T20:59:27.973Z,3.43
2022-12-28T21:01:55.088Z,3.87
2022-12-28T21:04:24.201Z,3.60
2022-12-28T21:06:51.255Z,3.17
2022-12-28T21:09:18.252Z,3.30
2022-12-28T21:11:45.277Z,3.63
2022-12-28T21:14:12.154Z,4.17
2022-12-28T21:16:39.098Z,2.80
2022-12-28T21:19:06.080Z,3.63
2022-12-28T21:21:32.955Z,3.37
2022-12-28T21:24:02.918Z,3.20
2022-12-28T21:26:30.038Z,3.20
2022-12-28T21:28:56.918Z,3.13
2022-12-28T21:31:23.894Z,3.20
2022-12-28T21:33:55.226Z,3.50
2022-12-28T21:36:22.330Z,4.93
2022-12-28T21:38:49.788Z,4.13
2022-12-28T21:41:38.856Z,4.40
2022-12-28T21:44:07.280Z,3.93
2022-12-28T21:46:34.363Z,4.07
2022-12-28T21:49:03.654Z,4.90
2022-12-28T21:51:37.577Z,4.13
2022-12-28T21:54:06.965Z,3.10
2022-12-28T21:56:34.968Z,3.30
2022-12-28T21:59:02.124Z,3.47
2022-12-28T22:01:48.029Z,4.73
2022-12-28T22:04:35.369Z,3.43
2022-12-28T22:07:02.604Z,3.10
2022-12-28T22:09:47.748Z,3.47
2022-12-28T22:12:33.279Z,3.03
2022-12-28T22:15:22.429Z,2.47
2022-12-28T22:17:49.386Z,2.67
2022-12-28T22:20:16.693Z,3.10
2022-12-28T22:22:44.196Z,2.97
2022-12-28T22:25:12.475Z,3.03
2022-12-28T22:27:39.695Z,3.73
2022-12-28T22:30:07.203Z,2.13
2022-12-28T22:32:34.117Z,2.87
2022-12-28T22:35:01.095Z,3.27
2022-12-28T22:37:27.985Z,2.80
2022-12-28T22:39:54.912Z,2.67
2022-12-28T22:42:21.992Z,3.10
2022-12-28T22:44:48.854Z,3.40
2022-12-28T22:47:15.719Z,3.27
2022-12-28T22:49:42.625Z,2.50
2022-12-28T22:52:09.784Z,3.20
2022-12-28T22:54:36.712Z,3.03
2022-12-28T22:57:04.487Z,2.83
2022-12-28T22:59:31.424Z,2.93
2022-12-28T23:01:58.490Z,4.20
2022-12-28T23:04:25.461Z,3.13
2022-12-28T23:06:52.396Z,3.47
2022-12-28T23:09:19.263Z,2.80
2022-12-28T23:11:46.208Z,3.27
2022-12-28T23:14:31.817Z,2.90
2022-12-28T23:16:59.960Z,3.97
2022-12-28T23:19:46.910Z,4.40
2022-12-28T23:22:35.055Z,2.60
2022-12-28T23:25:20.496Z,3.57
2022-12-28T23:27:47.771Z,2.97
2022-12-28T23:30:19.878Z,3.40
2022-12-28T23:32:50.957Z,3.20
2022-12-28T23:35:19.162Z,3.23
2022-12-28T23:37:46.308Z,2.90
2022-12-28T23:40:15.872Z,3.50
2022-12-28T23:42:43.796Z,2.70
2022-12-28T23:45:13.405Z,2.60
2022-12-28T23:47:40.468Z,2.10
2022-12-28T23:50:07.980Z,2.30
2022-12-28T23:52:35.285Z,3.13
2022-12-28T23:55:02.328Z,2.83
2022-12-28T23:57:29.350Z,3.30
2022-12-28T23:59:56.231Z,4.23
